sensor_id;sensor_type;location;lat;lon;timestamp;pressure;altitude;pressure_sealevel;temperature;humidity
76866;BME280;66647;52.124;5.416;2024-03-17T00:01:56;102482.09;;;4.42;100.00
76866;BME280;66647;52.124;5.416;2024-03-17T00:04:26;102482.66;;;4.44;100.00
76866;BME280;66647;52.124;5.416;2024-03-17T00:06:53;102476.16;;;4.45;100.00
76866;BME280;66647;52.124;5.416;2024-03-17T00:12:45;102472.28;;;4.41;100.00
76866;BME280;66647;52.124;5.416;2024-03-17T00:15:12;102476.66;;;4.42;100.00
76866;BME280;66647;52.124;5.416;2024-03-17T00:17:40;102475.00;;;4.41;100.00
76866;BME280;66647;52.124;5.416;2024-03-17T00:20:06;102467.09;;;4.39;100.00
76866;BME280;66647;52.124;5.416;2024-03-17T00:27:05;102452.44;;;4.41;100.00
76866;BME280;66647;52.124;5.416;2024-03-17T00:29:36;102452.22;;;4.42;100.00
76866;BME280;66647;52.124;5.416;2024-03-17T00:32:17;102458.72;;;4.41;100.00
76866;BME280;66647;52.124;5.416;2024-03-17T00:42:31;102462.16;;;4.36;100.00
76866;BME280;66647;52.124;5.416;2024-03-17T00:53:20;102433.75;;;4.27;100.00
76866;BME280;66647;52.124;5.416;2024-03-17T00:56:09;102438.34;;;4.27;100.00
76866;BME280;66647;52.124;5.416;2024-03-17T00:58:50;102437.28;;;4.28;100.00
76866;BME280;66647;52.124;5.416;2024-03-17T01:01:17;102437.03;;;4.29;100.00
76866;BME280;66647;52.124;5.416;2024-03-17T01:03:45;102450.13;;;4.32;100.00
76866;BME280;66647;52.124;5.416;2024-03-17T01:07:05;102445.19;;;4.29;100.00
76866;BME280;66647;52.124;5.416;2024-03-17T01:09:47;102443.19;;;4.25;100.00
76866;BME280;66647;52.124;5.416;2024-03-17T01:12:47;102435.00;;;4.20;100.00
76866;BME280;66647;52.124;5.416;2024-03-17T01:15:40;102431.22;;;4.21;100.00
76866;BME280;66647;52.124;5.416;2024-03-17T01:18:06;102429.03;;;4.23;100.00
76866;BME280;66647;52.124;5.416;2024-03-17T01:20:34;102425.78;;;4.21;100.00
76866;BME280;66647;52.124;5.416;2024-03-17T01:23:09;102433.34;;;4.19;100.00
76866;BME280;66647;52.124;5.416;2024-03-17T01:25:36;102426.03;;;4.19;100.00
76866;BME280;66647;52.124;5.416;2024-03-17T01:28:09;102424.13;;;4.20;100.00
76866;BME280;66647;52.124;5.416;2024-03-17T01:30:42;102423.31;;;4.19;100.00
76866;BME280;66647;52.124;5.416;2024-03-17T01:33:08;102411.03;;;4.17;100.00
76866;BME280;66647;52.124;5.416;2024-03-17T01:35:35;102418.13;;;4.18;100.00
76866;BME280;66647;52.124;5.416;2024-03-17T01:38:09;102410.78;;;4.18;100.00
76866;BME280;66647;52.124;5.416;2024-03-17T01:41:19;102404.78;;;4.16;100.00
76866;BME280;66647;52.124;5.416;2024-03-17T01:43:45;102401.84;;;4.18;100.00
76866;BME280;66647;52.124;5.416;2024-03-17T01:46:13;102399.69;;;4.20;100.00
76866;BME280;66647;52.124;5.416;2024-03-17T01:48:42;102391.31;;;4.21;100.00
76866;BME280;66647;52.124;5.416;2024-03-17T01:51:23;102384.47;;;4.19;100.00
76866;BME280;66647;52.124;5.416;2024-03-17T02:00:19;102390.72;;;4.19;100.00
76866;BME280;66647;52.124;5.416;2024-03-17T02:03:18;102391.78;;;4.18;100.00
76866;BME280;66647;52.124;5.416;2024-03-17T02:06:03;102385.53;;;4.18;100.00
76866;BME280;66647;52.124;5.416;2024-03-17T02:09:33;102381.66;;;4.14;100.00
76866;BME280;66647;52.124;5.416;2024-03-17T02:12:02;102389.22;;;4.12;100.00
76866;BME280;66647;52.124;5.416;2024-03-17T02:14:29;102385.44;;;4.13;100.00
76866;BME280;66647;52.124;5.416;2024-03-17T02:20:47;102380.16;;;4.23;100.00
76866;BME280;66647;52.124;5.416;2024-03-17T02:23:35;102375.91;;;4.27;100.00
76866;BME280;66647;52.124;5.416;2024-03-17T02:26:27;102376.22;;;4.30;100.00
76866;BME280;66647;52.124;5.416;2024-03-17T02:28:53;102372.22;;;4.33;100.00
76866;BME280;66647;52.124;5.416;2024-03-17T02:38:36;102369.09;;;4.41;100.00
76866;BME280;66647;52.124;5.416;2024-03-17T02:41:46;102360.44;;;4.44;100.00
76866;BME280;66647;52.124;5.416;2024-03-17T02:44:12;102352.06;;;4.46;100.00
76866;BME280;66647;52.124;5.416;2024-03-17T02:47:04;102358.31;;;4.46;100.00
76866;BME280;66647;52.124;5.416;2024-03-17T02:49:55;102352.88;;;4.46;100.00
76866;BME280;66647;52.124;5.416;2024-03-17T02:55:37;102355.44;;;4.53;100.00
76866;BME280;66647;52.124;5.416;2024-03-17T02:58:45;102356.25;;;4.53;100.00
76866;BME280;66647;52.124;5.416;2024-03-17T03:04:58;102354.16;;;4.60;100.00
76866;BME280;66647;52.124;5.416;2024-03-17T03:11:17;102342.31;;;4.66;100.00
76866;BME280;66647;52.124;5.416;2024-03-17T03:20:10;102346.50;;;4.74;100.00
76866;BME280;66647;52.124;5.416;2024-03-17T03:23:03;102347.91;;;4.77;100.00
76866;BME280;66647;52.124;5.416;2024-03-17T03:30:37;102355.06;;;4.83;100.00
76866;BME280;66647;52.124;5.416;2024-03-17T03:33:35;102347.47;;;4.85;100.00
76866;BME280;66647;52.124;5.416;2024-03-17T03:39:38;102347.78;;;4.88;100.00
76866;BME280;66647;52.124;5.416;2024-03-17T03:42:08;102342.09;;;4.90;100.00
76866;BME280;66647;52.124;5.416;2024-03-17T03:54:45;102313.91;;;4.96;100.00
76866;BME280;66647;52.124;5.416;2024-03-17T03:57:47;102307.66;;;4.95;100.00
76866;BME280;66647;52.124;5.416;2024-03-17T04:10:29;102291.34;;;4.95;100.00
76866;BME280;66647;52.124;5.416;2024-03-17T04:13:04;102285.06;;;4.95;100.00
76866;BME280;66647;52.124;5.416;2024-03-17T04:15:35;102279.66;;;4.95;100.00
76866;BME280;66647;52.124;5.416;2024-03-17T04:18:06;102281.28;;;4.96;100.00
76866;BME280;66647;52.124;5.416;2024-03-17T04:27:07;102276.59;;;4.91;100.00
76866;BME280;66647;52.124;5.416;2024-03-17T04:30:21;102286.41;;;4.92;100.00
76866;BME280;66647;52.124;5.416;2024-03-17T04:33:15;102278.81;;;4.94;100.00
76866;BME280;66647;52.124;5.416;2024-03-17T04:35:53;102263.34;;;4.95;100.00
76866;BME280;66647;52.124;5.416;2024-03-17T04:41:36;102252.47;;;4.95;100.00
76866;BME280;66647;52.124;5.416;2024-03-17T04:44:06;102258.72;;;4.95;100.00
76866;BME280;66647;52.124;5.416;2024-03-17T04:50:02;102250.81;;;4.94;100.00
76866;BME280;66647;52.124;5.416;2024-03-17T04:52:40;102263.34;;;4.95;100.00
76866;BME280;66647;52.124;5.416;2024-03-17T05:03:37;102275.09;;;5.00;100.00
76866;BME280;66647;52.124;5.416;2024-03-17T05:06:32;102268.59;;;5.01;100.00
76866;BME280;66647;52.124;5.416;2024-03-17T05:17:20;102271.63;;;5.05;100.00
76866;BME280;66647;52.124;5.416;2024-03-17T05:19:58;102260.75;;;5.05;100.00
76866;BME280;66647;52.124;5.416;2024-03-17T05:22:25;102262.66;;;5.04;100.00
76866;BME280;66647;52.124;5.416;2024-03-17T05:24:54;102269.97;;;5.04;100.00
76866;BME280;66647;52.124;5.416;2024-03-17T05:27:20;102261.81;;;5.04;100.00
76866;BME280;66647;52.124;5.416;2024-03-17T05:30:12;102262.66;;;5.04;100.00
76866;BME280;66647;52.124;5.416;2024-03-17T05:45:05;102251.53;;;5.06;100.00
76866;BME280;66647;52.124;5.416;2024-03-17T05:47:42;102247.97;;;5.05;100.00
76866;BME280;66647;52.124;5.416;2024-03-17T05:50:09;102247.16;;;5.05;100.00
76866;BME280;66647;52.124;5.416;2024-03-17T05:52:39;102243.38;;;5.06;100.00
76866;BME280;66647;52.124;5.416;2024-03-17T05:58:38;102254.56;;;5.10;100.00
76866;BME280;66647;52.124;5.416;2024-03-17T06:01:45;102261.38;;;5.12;100.00
76866;BME280;66647;52.124;5.416;2024-03-17T06:04:13;102267.66;;;5.13;100.00
76866;BME280;66647;52.124;5.416;2024-03-17T06:10:15;102261.94;;;5.14;100.00
76866;BME280;66647;52.124;5.416;2024-03-17T06:13:06;102261.94;;;5.14;100.00
76866;BME280;66647;52.124;5.416;2024-03-17T06:15:55;102264.16;;;5.17;100.00
76866;BME280;66647;52.124;5.416;2024-03-17T06:19:15;102262.00;;;5.19;100.00
76866;BME280;66647;52.124;5.416;2024-03-17T06:25:15;102252.31;;;5.28;100.00
76866;BME280;66647;52.124;5.416;2024-03-17T06:28:28;102250.72;;;5.32;100.00
76866;BME280;66647;52.124;5.416;2024-03-17T06:32:12;102246.97;;;5.38;100.00
76866;BME280;66647;52.124;5.416;2024-03-17T06:34:40;102243.50;;;5.43;100.00
76866;BME280;66647;52.124;5.416;2024-03-17T06:43:57;102247.56;;;5.72;100.00
76866;BME280;66647;52.124;5.416;2024-03-17T06:46:59;102247.38;;;5.79;100.00
76866;BME280;66647;52.124;5.416;2024-03-17T06:50:39;102249.59;;;5.87;100.00
76866;BME280;66647;52.124;5.416;2024-03-17T06:53:10;102250.22;;;5.94;100.00
76866;BME280;66647;52.124;5.416;2024-03-17T06:56:29;102258.19;;;6.01;100.00
76866;BME280;66647;52.124;5.416;2024-03-17T07:03:15;102249.84;;;6.13;100.00
76866;BME280;66647;52.124;5.416;2024-03-17T07:06:21;102240.59;;;6.19;100.00
76866;BME280;66647;52.124;5.416;2024-03-17T07:09:02;102239.81;;;6.23;100.00
76866;BME280;66647;52.124;5.416;2024-03-17T07:20:06;102249.50;;;6.51;100.00
76866;BME280;66647;52.124;5.416;2024-03-17T07:23:50;102256.97;;;6.66;100.00
76866;BME280;66647;52.124;5.416;2024-03-17T07:27:57;102254.59;;;6.85;100.00
76866;BME280;66647;52.124;5.416;2024-03-17T07:30:23;102257.38;;;7.00;100.00
76866;BME280;66647;52.124;5.416;2024-03-17T07:32:58;102263.19;;;7.14;100.00
76866;BME280;66647;52.124;5.416;2024-03-17T07:42:20;102244.69;;;7.56;100.00
76866;BME280;66647;52.124;5.416;2024-03-17T08:01:09;102243.91;;;7.96;100.00
76866;BME280;66647;52.124;5.416;2024-03-17T08:03:37;102234.88;;;8.01;100.00
76866;BME280;66647;52.124;5.416;2024-03-17T08:09:06;102246.63;;;8.12;100.00
76866;BME280;66647;52.124;5.416;2024-03-17T08:11:34;102246.31;;;8.18;99.86
76866;BME280;66647;52.124;5.416;2024-03-17T08:17:35;102248.50;;;8.26;99.59
76866;BME280;66647;52.124;5.416;2024-03-17T08:20:29;102242.78;;;8.28;98.98
76866;BME280;66647;52.124;5.416;2024-03-17T08:23:21;102241.69;;;8.24;99.51
76866;BME280;66647;52.124;5.416;2024-03-17T08:26:04;102242.22;;;8.26;98.97
76866;BME280;66647;52.124;5.416;2024-03-17T08:28:30;102242.78;;;8.28;99.63
76866;BME280;66647;52.124;5.416;2024-03-17T08:31:03;102236.22;;;8.29;99.56
76866;BME280;66647;52.124;5.416;2024-03-17T08:36:50;102225.28;;;8.29;99.92
76866;BME280;66647;52.124;5.416;2024-03-17T08:39:17;102228.56;;;8.31;99.80
76866;BME280;66647;52.124;5.416;2024-03-17T08:42:10;102238.66;;;8.30;100.00
76866;BME280;66647;52.124;5.416;2024-03-17T08:44:36;102235.66;;;8.32;99.98
76866;BME280;66647;52.124;5.416;2024-03-17T08:47:04;102231.28;;;8.31;99.77
76866;BME280;66647;52.124;5.416;2024-03-17T08:49:42;102228.59;;;8.36;99.53
76866;BME280;66647;52.124;5.416;2024-03-17T08:52:34;102222.56;;;8.44;98.48
76866;BME280;66647;52.124;5.416;2024-03-17T08:55:17;102224.97;;;8.51;97.36
76866;BME280;66647;52.124;5.416;2024-03-17T08:57:42;102225.22;;;8.59;97.81
76866;BME280;66647;52.124;5.416;2024-03-17T09:00:08;102222.19;;;8.66;97.29
76866;BME280;66647;52.124;5.416;2024-03-17T09:02:34;102219.19;;;8.72;97.15
76866;BME280;66647;52.124;5.416;2024-03-17T09:05:00;102220.25;;;8.77;96.92
76866;BME280;66647;52.124;5.416;2024-03-17T09:07:27;102212.00;;;8.82;97.21
76866;BME280;66647;52.124;5.416;2024-03-17T09:09:52;102217.44;;;8.92;97.06
76866;BME280;66647;52.124;5.416;2024-03-17T09:12:18;102219.28;;;9.06;97.93
76866;BME280;66647;52.124;5.416;2024-03-17T09:14:47;102208.53;;;9.20;95.65
76866;BME280;66647;52.124;5.416;2024-03-17T09:17:12;102212.06;;;9.26;94.84
76866;BME280;66647;52.124;5.416;2024-03-17T09:19:38;102216.41;;;9.32;95.14
76866;BME280;66647;52.124;5.416;2024-03-17T09:22:04;102213.34;;;9.38;95.47
76866;BME280;66647;52.124;5.416;2024-03-17T09:24:30;102210.25;;;9.45;95.79
76866;BME280;66647;52.124;5.416;2024-03-17T09:26:56;102204.22;;;9.48;95.10
76866;BME280;66647;52.124;5.416;2024-03-17T09:29:24;102209.41;;;9.50;94.79
76866;BME280;66647;52.124;5.416;2024-03-17T09:31:50;102219.25;;;9.56;94.96
76866;BME280;66647;52.124;5.416;2024-03-17T09:34:16;102211.56;;;9.58;94.22
76866;BME280;66647;52.124;5.416;2024-03-17T09:36:42;102212.63;;;9.62;93.83
76866;BME280;66647;52.124;5.416;2024-03-17T09:39:09;102213.97;;;9.64;93.67
76866;BME280;66647;52.124;5.416;2024-03-17T09:41:39;102204.66;;;9.65;92.65
76866;BME280;66647;52.124;5.416;2024-03-17T09:44:06;102219.13;;;9.71;92.82
76866;BME280;66647;52.124;5.416;2024-03-17T09:46:34;102209.16;;;9.80;93.45
76866;BME280;66647;52.124;5.416;2024-03-17T09:49:00;102212.66;;;9.91;92.82
76866;BME280;66647;52.124;5.416;2024-03-17T09:51:25;102209.59;;;9.97;93.19
76866;BME280;66647;52.124;5.416;2024-03-17T09:53:52;102205.63;;;10.08;92.60
76866;BME280;66647;52.124;5.416;2024-03-17T09:56:19;102203.88;;;10.18;91.83
76866;BME280;66647;52.124;5.416;2024-03-17T09:58:50;102207.69;;;10.27;91.66
76866;BME280;66647;52.124;5.416;2024-03-17T10:01:17;102205.41;;;10.34;90.68
76866;BME280;66647;52.124;5.416;2024-03-17T10:06:10;102192.53;;;10.77;92.07
76866;BME280;66647;52.124;5.416;2024-03-17T10:08:51;102190.94;;;11.14;90.06
76866;BME280;66647;52.124;5.416;2024-03-17T10:11:21;102183.91;;;11.26;85.84
76866;BME280;66647;52.124;5.416;2024-03-17T10:13:59;102186.66;;;11.26;87.12
76866;BME280;66647;52.124;5.416;2024-03-17T10:16:26;102189.41;;;11.26;85.69
76866;BME280;66647;52.124;5.416;2024-03-17T10:19:13;102185.84;;;11.26;86.02
76866;BME280;66647;52.124;5.416;2024-03-17T10:21:44;102183.91;;;11.26;86.06
76866;BME280;66647;52.124;5.416;2024-03-17T10:24:20;102186.72;;;11.21;86.37
76866;BME280;66647;52.124;5.416;2024-03-17T10:26:56;102181.16;;;11.26;86.34
76866;BME280;66647;52.124;5.416;2024-03-17T10:29:29;102179.75;;;11.29;85.86
76866;BME280;66647;52.124;5.416;2024-03-17T10:32:13;102172.06;;;11.44;86.29
76866;BME280;66647;52.124;5.416;2024-03-17T10:34:40;102172.47;;;11.70;86.23
76866;BME280;66647;52.124;5.416;2024-03-17T10:39:38;102168.53;;;12.23;82.25
76866;BME280;66647;52.124;5.416;2024-03-17T10:42:06;102168.44;;;12.28;79.93
76866;BME280;66647;52.124;5.416;2024-03-17T10:44:38;102159.97;;;12.38;78.64
76866;BME280;66647;52.124;5.416;2024-03-17T10:47:06;102169.56;;;12.54;79.15
76866;BME280;66647;52.124;5.416;2024-03-17T10:49:37;102156.47;;;12.73;77.42
76866;BME280;66647;52.124;5.416;2024-03-17T10:52:15;102153.81;;;12.96;79.77
76866;BME280;66647;52.124;5.416;2024-03-17T10:54:51;102149.88;;;13.24;77.24
76866;BME280;66647;52.124;5.416;2024-03-17T10:57:44;102153.63;;;13.28;78.79
76866;BME280;66647;52.124;5.416;2024-03-17T11:00:20;102147.84;;;13.38;76.78
76866;BME280;66647;52.124;5.416;2024-03-17T11:03:08;102147.59;;;13.49;76.14
76866;BME280;66647;52.124;5.416;2024-03-17T11:05:37;102144.34;;;13.47;75.16
76866;BME280;66647;52.124;5.416;2024-03-17T11:08:20;102149.13;;;13.55;75.16
76866;BME280;66647;52.124;5.416;2024-03-17T11:10:52;102142.38;;;13.69;73.11
76866;BME280;66647;52.124;5.416;2024-03-17T11:13:27;102143.06;;;13.75;73.26
76866;BME280;66647;52.124;5.416;2024-03-17T11:16:43;102143.88;;;13.75;73.38
76866;BME280;66647;52.124;5.416;2024-03-17T11:19:14;102130.03;;;13.67;75.80
76866;BME280;66647;52.124;5.416;2024-03-17T11:21:40;102140.44;;;13.70;74.40
76866;BME280;66647;52.124;5.416;2024-03-17T11:24:18;102137.28;;;13.54;75.77
76866;BME280;66647;52.124;5.416;2024-03-17T11:26:45;102141.97;;;13.54;74.60
76866;BME280;66647;52.124;5.416;2024-03-17T11:29:28;102134.06;;;13.38;75.69
76866;BME280;66647;52.124;5.416;2024-03-17T11:31:56;102130.97;;;13.31;76.97
76866;BME280;66647;52.124;5.416;2024-03-17T11:34:29;102133.13;;;13.21;76.77
76866;BME280;66647;52.124;5.416;2024-03-17T11:36:57;102121.13;;;13.03;77.23
76866;BME280;66647;52.124;5.416;2024-03-17T11:39:46;102130.16;;;12.95;77.89
76866;BME280;66647;52.124;5.416;2024-03-17T11:42:15;102122.59;;;12.87;77.40
76866;BME280;66647;52.124;5.416;2024-03-17T11:45:04;102125.88;;;12.75;77.35
76866;BME280;66647;52.124;5.416;2024-03-17T11:47:37;102124.69;;;12.67;78.81
76866;BME280;66647;52.124;5.416;2024-03-17T11:50:05;102139.19;;;12.59;78.88
76866;BME280;66647;52.124;5.416;2024-03-17T11:52:32;102129.81;;;12.47;78.53
76866;BME280;66647;52.124;5.416;2024-03-17T11:54:57;102138.97;;;12.42;79.29
76866;BME280;66647;52.124;5.416;2024-03-17T11:57:25;102136.84;;;12.39;80.33
76866;BME280;66647;52.124;5.416;2024-03-17T11:59:53;102127.47;;;12.40;81.00
76866;BME280;66647;52.124;5.416;2024-03-17T12:02:27;102134.09;;;12.39;80.25
76866;BME280;66647;52.124;5.416;2024-03-17T12:05:00;102134.22;;;12.34;81.23
76866;BME280;66647;52.124;5.416;2024-03-17T12:07:26;102127.38;;;12.31;81.19
76866;BME280;66647;52.124;5.416;2024-03-17T12:09:54;102133.72;;;12.32;80.87
76866;BME280;66647;52.124;5.416;2024-03-17T12:12:26;102130.66;;;12.33;81.44
76866;BME280;66647;52.124;5.416;2024-03-17T12:15:01;102122.72;;;12.32;80.53
76866;BME280;66647;52.124;5.416;2024-03-17T12:17:28;102121.59;;;12.33;80.93
76866;BME280;66647;52.124;5.416;2024-03-17T12:19:57;102117.38;;;12.35;80.43
76866;BME280;66647;52.124;5.416;2024-03-17T12:22:24;102116.78;;;12.38;81.40
76866;BME280;66647;52.124;5.416;2024-03-17T12:24:53;102107.19;;;12.50;81.55
76866;BME280;66647;52.124;5.416;2024-03-17T12:27:26;102107.78;;;12.60;82.12
76866;BME280;66647;52.124;5.416;2024-03-17T12:29:53;102103.00;;;12.66;81.34
76866;BME280;66647;52.124;5.416;2024-03-17T12:32:31;102105.41;;;12.67;80.38
76866;BME280;66647;52.124;5.416;2024-03-17T12:35:27;102092.00;;;12.66;79.75
76866;BME280;66647;52.124;5.416;2024-03-17T12:37:59;102088.13;;;12.67;79.99
76866;BME280;66647;52.124;5.416;2024-03-17T12:40:33;102084.41;;;12.71;79.48
76866;BME280;66647;52.124;5.416;2024-03-17T12:43:05;102082.47;;;12.72;79.47
76866;BME280;66647;52.124;5.416;2024-03-17T12:45:40;102078.91;;;12.71;79.98
76866;BME280;66647;52.124;5.416;2024-03-17T12:48:13;102077.16;;;12.75;80.29
76866;BME280;66647;52.124;5.416;2024-03-17T12:50:47;102070.53;;;12.76;79.19
76866;BME280;66647;52.124;5.416;2024-03-17T12:53:16;102063.19;;;12.72;79.00
76866;BME280;66647;52.124;5.416;2024-03-17T12:55:54;102067.06;;;12.71;79.68
76866;BME280;66647;52.124;5.416;2024-03-17T12:58:44;102059.88;;;12.61;79.55
76866;BME280;66647;52.124;5.416;2024-03-17T13:01:32;102057.66;;;12.63;79.66
76866;BME280;66647;52.124;5.416;2024-03-17T13:04:07;102052.81;;;12.69;81.32
76866;BME280;66647;52.124;5.416;2024-03-17T13:06:36;102049.09;;;12.65;80.33
76866;BME280;66647;52.124;5.416;2024-03-17T13:09:02;102056.38;;;12.69;81.52
76866;BME280;66647;52.124;5.416;2024-03-17T13:11:55;102059.63;;;12.71;80.47
76866;BME280;66647;52.124;5.416;2024-03-17T13:14:24;102049.25;;;12.68;80.79
76866;BME280;66647;52.124;5.416;2024-03-17T13:16:50;102046.03;;;12.66;81.30
76866;BME280;66647;52.124;5.416;2024-03-17T13:19:48;102045.25;;;12.74;80.38
76866;BME280;66647;52.124;5.416;2024-03-17T13:22:18;102039.44;;;12.76;80.11
76866;BME280;66647;52.124;5.416;2024-03-17T13:24:43;102040.75;;;12.78;80.57
76866;BME280;66647;52.124;5.416;2024-03-17T13:27:10;102035.56;;;12.77;79.86
76866;BME280;66647;52.124;5.416;2024-03-17T13:29:36;102035.56;;;12.77;81.16
76866;BME280;66647;52.124;5.416;2024-03-17T13:32:15;102026.69;;;12.80;80.90
76866;BME280;66647;52.124;5.416;2024-03-17T13:35:58;102024.13;;;12.84;80.73
76866;BME280;66647;52.124;5.416;2024-03-17T13:38:24;102036.06;;;12.79;80.83
76866;BME280;66647;52.124;5.416;2024-03-17T13:40:49;102018.13;;;12.82;80.98
76866;BME280;66647;52.124;5.416;2024-03-17T13:43:15;102019.13;;;12.86;81.12
76866;BME280;66647;52.124;5.416;2024-03-17T13:45:42;102016.38;;;12.86;80.99
76866;BME280;66647;52.124;5.416;2024-03-17T13:48:09;102009.75;;;12.87;81.54
76866;BME280;66647;52.124;5.416;2024-03-17T13:50:40;102011.88;;;12.90;81.67
76866;BME280;66647;52.124;5.416;2024-03-17T13:53:29;102008.19;;;12.94;80.99
76866;BME280;66647;52.124;5.416;2024-03-17T13:56:04;102005.13;;;12.96;81.15
76866;BME280;66647;52.124;5.416;2024-03-17T13:58:37;102004.63;;;12.94;81.95
76866;BME280;66647;52.124;5.416;2024-03-17T14:01:07;101998.47;;;12.97;81.31
76866;BME280;66647;52.124;5.416;2024-03-17T14:03:33;101990.38;;;13.00;82.46
76866;BME280;66647;52.124;5.416;2024-03-17T14:06:14;101992.78;;;13.16;82.22
76866;BME280;66647;52.124;5.416;2024-03-17T14:09:05;102002.47;;;13.13;81.19
76866;BME280;66647;52.124;5.416;2024-03-17T14:11:35;101988.69;;;13.13;80.96
76866;BME280;66647;52.124;5.416;2024-03-17T14:14:25;101982.59;;;13.16;80.02
76866;BME280;66647;52.124;5.416;2024-03-17T14:17:17;101978.06;;;13.20;81.40
76866;BME280;66647;52.124;5.416;2024-03-17T14:19:43;101977.50;;;13.32;81.89
76866;BME280;66647;52.124;5.416;2024-03-17T14:22:38;101969.06;;;13.28;80.33
76866;BME280;66647;52.124;5.416;2024-03-17T14:25:05;101971.63;;;13.25;80.38
76866;BME280;66647;52.124;5.416;2024-03-17T14:27:31;101963.03;;;13.26;80.47
76866;BME280;66647;52.124;5.416;2024-03-17T14:29:57;101965.97;;;13.30;80.70
76866;BME280;66647;52.124;5.416;2024-03-17T14:32:23;101955.78;;;13.30;80.53
76866;BME280;66647;52.124;5.416;2024-03-17T14:34:49;101956.44;;;13.36;79.64
76866;BME280;66647;52.124;5.416;2024-03-17T14:37:15;101949.47;;;13.38;79.94
76866;BME280;66647;52.124;5.416;2024-03-17T14:39:40;101950.78;;;13.41;78.66
76866;BME280;66647;52.124;5.416;2024-03-17T14:42:06;101949.84;;;13.45;80.27
76866;BME280;66647;52.124;5.416;2024-03-17T14:44:34;101944.19;;;13.51;79.85
76866;BME280;66647;52.124;5.416;2024-03-17T14:47:03;101940.50;;;13.64;80.10
76866;BME280;66647;52.124;5.416;2024-03-17T14:49:30;101941.47;;;13.68;77.89
76866;BME280;66647;52.124;5.416;2024-03-17T14:51:56;101935.63;;;13.61;79.18
76866;BME280;66647;52.124;5.416;2024-03-17T14:54:22;101940.66;;;13.59;78.15
76866;BME280;66647;52.124;5.416;2024-03-17T14:56:48;101931.06;;;13.56;78.12
76866;BME280;66647;52.124;5.416;2024-03-17T14:59:16;101933.16;;;13.51;77.64
76866;BME280;66647;52.124;5.416;2024-03-17T15:01:46;101927.00;;;13.54;78.66
76866;BME280;66647;52.124;5.416;2024-03-17T15:04:30;101936.13;;;13.63;78.55
76866;BME280;66647;52.124;5.416;2024-03-17T15:06:56;101925.09;;;13.63;78.64
76866;BME280;66647;52.124;5.416;2024-03-17T15:09:24;101915.34;;;13.65;78.60
76866;BME280;66647;52.124;5.416;2024-03-17T15:11:50;101917.63;;;13.55;77.66
76866;BME280;66647;52.124;5.416;2024-03-17T15:14:16;101908.78;;;13.35;78.31
76866;BME280;66647;52.124;5.416;2024-03-17T15:16:45;101903.75;;;13.29;79.34
76866;BME280;66647;52.124;5.416;2024-03-17T15:19:11;101900.50;;;13.27;79.65
76866;BME280;66647;52.124;5.416;2024-03-17T15:21:38;101908.91;;;13.22;79.57
76866;BME280;66647;52.124;5.416;2024-03-17T15:24:05;101902.09;;;13.19;79.82
76866;BME280;66647;52.124;5.416;2024-03-17T15:26:32;101893.94;;;13.14;80.73
76866;BME280;66647;52.124;5.416;2024-03-17T15:29:11;101889.53;;;13.13;80.33
76866;BME280;66647;52.124;5.416;2024-03-17T15:31:38;101897.31;;;13.11;80.56
76866;BME280;66647;52.124;5.416;2024-03-17T15:34:33;101893.75;;;13.10;81.17
76866;BME280;66647;52.124;5.416;2024-03-17T15:37:47;101887.59;;;13.13;81.79
76866;BME280;66647;52.124;5.416;2024-03-17T15:40:45;101885.47;;;13.10;81.63
76866;BME280;66647;52.124;5.416;2024-03-17T15:44:18;101887.28;;;13.15;82.11
76866;BME280;66647;52.124;5.416;2024-03-17T15:46:46;101881.19;;;13.18;81.83
76866;BME280;66647;52.124;5.416;2024-03-17T15:49:16;101878.78;;;13.25;82.18
76866;BME280;66647;52.124;5.416;2024-03-17T15:51:41;101876.16;;;13.20;82.33
76866;BME280;66647;52.124;5.416;2024-03-17T15:54:08;101869.34;;;13.18;82.85
76866;BME280;66647;52.124;5.416;2024-03-17T15:56:34;101862.50;;;13.15;82.43
76866;BME280;66647;52.124;5.416;2024-03-17T15:59:13;101873.03;;;13.13;82.63
76866;BME280;66647;52.124;5.416;2024-03-17T16:01:43;101875.41;;;13.06;83.48
76866;BME280;66647;52.124;5.416;2024-03-17T16:04:25;101873.94;;;13.00;83.22
76866;BME280;66647;52.124;5.416;2024-03-17T16:07:05;101866.66;;;12.95;83.85
76866;BME280;66647;52.124;5.416;2024-03-17T16:13:13;101862.41;;;12.89;84.13
76866;BME280;66647;52.124;5.416;2024-03-17T16:15:40;101853.31;;;12.89;83.88
76866;BME280;66647;52.124;5.416;2024-03-17T16:19:19;101859.00;;;12.92;84.12
76866;BME280;66647;52.124;5.416;2024-03-17T16:21:47;101858.19;;;12.92;84.58
76866;BME280;66647;52.124;5.416;2024-03-17T16:24:14;101847.69;;;12.94;84.92
76866;BME280;66647;52.124;5.416;2024-03-17T16:27:13;101852.19;;;12.90;84.68
76866;BME280;66647;52.124;5.416;2024-03-17T16:29:49;101853.81;;;12.91;85.40
76866;BME280;66647;52.124;5.416;2024-03-17T16:32:23;101857.53;;;12.86;86.08
76866;BME280;66647;52.124;5.416;2024-03-17T16:35:17;101856.22;;;12.84;85.89
76866;BME280;66647;52.124;5.416;2024-03-17T16:37:50;101853.78;;;12.82;85.86
76866;BME280;66647;52.124;5.416;2024-03-17T16:40:19;101853.28;;;12.80;86.48
76866;BME280;66647;52.124;5.416;2024-03-17T16:42:44;101856.97;;;12.75;87.11
76866;BME280;66647;52.124;5.416;2024-03-17T16:45:11;101854.22;;;12.75;88.30
76866;BME280;66647;52.124;5.416;2024-03-17T16:47:38;101857.59;;;12.72;89.33
76866;BME280;66647;52.124;5.416;2024-03-17T16:53:24;101854.63;;;12.60;90.84
76866;BME280;66647;52.124;5.416;2024-03-17T16:55:50;101852.00;;;12.55;92.57
76866;BME280;66647;52.124;5.416;2024-03-17T16:58:16;101848.25;;;12.51;93.70
76866;BME280;66647;52.124;5.416;2024-03-17T17:00:42;101851.94;;;12.47;94.96
76866;BME280;66647;52.124;5.416;2024-03-17T17:03:34;101858.69;;;12.40;94.46